Time;durP1;ratioP1;P1;durP2;ratioP2;P2;SDS_P1;SDS_P2;PMS_P1;PMS_P2;Temp;Humidity;BMP_temperature;BMP_pressure;BME280_temperature;BME280_humidity;BME280_pressure;Samples;Min_cycle;Max_cycle;Signal;HPM_P1;HPM_P2
2022/12/03 00:00:48;;;;;;;21.17;14.47;;;;;;;2.04;100.00;98163.88;5094743;28;20226;-70
2022/12/03 00:03:15;;;;;;;19.27;13.67;;;;;;;2.08;100.00;98167.81;5094715;28;20204;-70
2022/12/03 00:05:41;;;;;;;20.17;14.70;;;;;;;2.07;100.00;98168.78;5094739;28;20231;-70
2022/12/03 00:08:07;;;;;;;20.57;15.20;;;;;;;2.03;100.00;98162.25;5094291;28;20214;-70
2022/12/03 00:10:34;;;;;;;19.70;14.97;;;;;;;2.07;100.00;98168.78;5094494;28;20232;-70
2022/12/03 00:13:00;;;;;;;21.53;15.37;;;;;;;2.03;100.00;98165.66;5094568;28;20206;-70
2022/12/03 00:15:26;;;;;;;22.97;15.07;;;;;;;2.08;100.00;98168.59;5094114;28;20587;-71
2022/12/03 00:17:53;;;;;;;18.30;13.87;;;;;;;2.04;100.00;98171.72;5094162;28;20260;-71
2022/12/03 00:20:22;;;;;;;20.47;15.00;;;;;;;2.14;100.00;98173.22;5094388;28;20207;-71
2022/12/03 00:22:48;;;;;;;22.60;16.47;;;;;;;2.17;100.00;98177.31;5093867;28;20567;-71
2022/12/03 00:25:15;;;;;;;21.37;15.63;;;;;;;2.19;100.00;98170.09;5094092;28;20566;-70
2022/12/03 00:27:41;;;;;;;21.33;15.30;;;;;;;2.24;100.00;98180.91;5094050;28;20214;-70
2022/12/03 00:30:09;;;;;;;19.73;15.03;;;;;;;2.31;100.00;98176.66;5094352;28;20290;-71
2022/12/03 00:32:35;;;;;;;18.80;15.23;;;;;;;2.32;100.00;98180.91;5094182;28;20220;-71
2022/12/03 00:35:02;;;;;;;22.07;15.60;;;;;;;2.38;100.00;98169.75;5093861;28;20598;-70
2022/12/03 00:37:28;;;;;;;23.40;16.13;;;;;;;2.39;100.00;98166.16;5094203;28;20296;-71
2022/12/03 00:39:55;;;;;;;22.20;15.30;;;;;;;2.36;100.00;98167.31;5094143;28;20210;-70
2022/12/03 00:42:21;;;;;;;19.40;14.83;;;;;;;2.36;100.00;98169.94;5093968;28;20234;-71
2022/12/03 00:44:47;;;;;;;20.73;14.77;;;;;;;2.39;100.00;98177.47;5093723;28;20663;-70
2022/12/03 00:47:14;;;;;;;21.83;15.60;;;;;;;2.40;100.00;98173.84;5093920;28;20226;-70
2022/12/03 00:49:40;;;;;;;22.33;15.23;;;;;;;2.40;100.00;98175.66;5093975;28;20206;-71
2022/12/03 00:52:06;;;;;;;21.70;15.90;;;;;;;2.40;100.00;98178.28;5093443;28;20242;-71
2022/12/03 00:54:33;;;;;;;21.13;15.33;;;;;;;2.39;100.00;98179.28;5093749;28;20226;-71
2022/12/03 00:56:59;;;;;;;19.13;14.60;;;;;;;2.42;100.00;98176.31;5093881;28;20246;-71
2022/12/03 00:59:26;;;;;;;21.10;15.60;;;;;;;2.46;100.00;98181.09;5093702;28;20685;-71
2022/12/03 01:01:52;;;;;;;21.27;16.10;;;;;;;2.51;100.00;98176.16;5093414;28;20228;-71
2022/12/03 01:04:18;;;;;;;21.27;16.33;;;;;;;2.51;100.00;98181.41;5093710;28;20200;-71
2022/12/03 01:06:45;;;;;;;22.93;16.07;;;;;;;2.56;100.00;98183.50;5093412;28;20204;-71
2022/12/03 01:09:11;;;;;;;19.87;16.17;;;;;;;2.62;100.00;98183.69;5093534;28;20204;-71
2022/12/03 01:11:37;;;;;;;22.13;15.30;;;;;;;2.65;100.00;98178.09;5093414;28;20226;-71
2022/12/03 01:14:10;;;;;;;21.00;15.87;;;;;;;2.68;100.00;98179.56;5093445;28;20205;-70
2022/12/03 01:16:37;;;;;;;20.67;16.30;;;;;;;2.56;100.00;98180.88;5094131;28;20200;-70
2022/12/03 01:19:05;;;;;;;18.73;14.13;;;;;;;2.58;100.00;98176.31;5093588;28;20206;-70
2022/12/03 01:21:33;;;;;;;22.30;15.07;;;;;;;2.69;100.00;98189.09;5093645;28;20234;-71
2022/12/03 01:24:00;;;;;;;17.67;13.87;;;;;;;2.67;100.00;98186.63;5093444;28;20294;-71
2022/12/03 01:26:26;;;;;;;17.73;13.27;;;;;;;2.71;100.00;98180.06;5093369;28;20230;-71
2022/12/03 01:28:53;;;;;;;16.33;12.57;;;;;;;2.73;100.00;98187.75;5093449;28;20204;-71
2022/12/03 01:34:04;;;;;;;17.80;13.37;;;;;;;2.71;100.00;98181.88;5093214;28;20247;-71
2022/12/03 01:36:30;;;;;;;16.93;13.33;;;;;;;2.77;100.00;98186.44;5096330;28;20204;-71
2022/12/03 01:38:57;;;;;;;16.00;12.47;;;;;;;2.80;100.00;98181.69;5097631;28;20238;-71
2022/12/03 01:41:25;;;;;;;15.13;12.47;;;;;;;2.87;100.00;98182.66;5097222;28;20230;-70
2022/12/03 01:43:52;;;;;;;16.10;12.57;;;;;;;2.89;100.00;98187.75;5097167;28;20615;-70
2022/12/03 01:46:23;;;;;;;16.37;12.57;;;;;;;2.90;100.00;98190.22;5097510;28;20200;-70
2022/12/03 01:48:52;;;;;;;15.83;12.50;;;;;;;2.83;100.00;98186.59;5097499;28;20188;-71
2022/12/03 01:51:19;;;;;;;15.00;12.77;;;;;;;2.91;100.00;98183.97;5097011;28;20235;-71
2022/12/03 01:53:46;;;;;;;17.83;12.90;;;;;;;2.98;100.00;98186.75;5079103;28;20201;-71
2022/12/03 01:56:15;;;;;;;16.27;12.30;;;;;;;2.86;100.00;98186.28;5096852;28;20698;-71
2022/12/03 01:58:44;;;;;;;17.27;12.80;;;;;;;2.94;100.00;98182.81;5097258;28;20285;-71
2022/12/03 02:01:14;;;;;;;17.50;13.47;;;;;;;2.96;100.00;98193.94;5096752;28;20227;-70
2022/12/03 02:03:41;;;;;;;16.03;13.13;;;;;;;2.94;100.00;98199.38;5097167;28;20211;-71
2022/12/03 02:06:16;;;;;;;16.17;13.40;;;;;;;2.93;100.00;98192.47;5096716;28;20238;-71
2022/12/03 02:08:43;;;;;;;15.77;12.57;;;;;;;2.90;100.00;98192.00;5096999;28;20199;-71
2022/12/03 02:11:25;;;;;;;16.93;13.77;;;;;;;2.92;100.00;98192.66;5096658;28;20228;-71
2022/12/03 02:13:55;;;;;;;16.77;13.07;;;;;;;2.93;100.00;98181.97;5097023;28;20192;-71
2022/12/03 02:16:21;;;;;;;17.43;13.67;;;;;;;2.96;100.00;98191.31;5096713;28;20228;-71
2022/12/03 02:18:48;;;;;;;17.63;13.10;;;;;;;2.94;100.00;98190.69;5096860;28;20214;-70
2022/12/03 02:21:46;;;;;;;17.30;12.57;;;;;;;2.93;100.00;98186.44;5096727;28;20228;-71
2022/12/03 02:24:24;;;;;;;16.03;12.50;;;;;;;2.94;100.00;98186.22;5096766;28;20198;-71
2022/12/03 02:26:50;;;;;;;17.33;12.93;;;;;;;2.91;100.00;98186.59;5096252;28;20188;-71
2022/12/03 02:29:17;;;;;;;15.57;12.80;;;;;;;2.91;100.00;98183.97;5096687;28;20290;-70
2022/12/03 02:31:43;;;;;;;14.97;11.93;;;;;;;2.98;100.00;98184.13;5096239;28;20703;-71
2022/12/03 02:34:11;;;;;;;18.00;13.27;;;;;;;2.91;100.00;98172.63;5096559;28;20230;-71
2022/12/03 02:36:38;;;;;;;16.30;13.17;;;;;;;2.91;100.00;98178.72;5096566;28;20204;-71
2022/12/03 02:39:05;;;;;;;15.77;12.97;;;;;;;2.86;100.00;98177.56;5096216;28;20210;-71
2022/12/03 02:44:15;;;;;;;15.97;13.10;;;;;;;2.99;100.00;98185.75;5096243;28;20537;-71
2022/12/03 02:46:42;;;;;;;17.30;13.60;;;;;;;2.98;100.00;98190.16;5095750;28;20214;-71
2022/12/03 02:49:08;;;;;;;16.83;12.90;;;;;;;2.94;100.00;98185.44;5096324;28;20207;-71
2022/12/03 02:51:35;;;;;;;18.63;13.30;;;;;;;2.99;100.00;98185.75;5096046;28;20273;-71
2022/12/03 02:54:02;;;;;;;19.00;14.03;;;;;;;2.99;100.00;98185.75;5096153;28;20204;-71
2022/12/03 02:56:31;;;;;;;17.73;13.20;;;;;;;3.01;100.00;98189.00;5095704;28;20589;-71
2022/12/03 02:59:02;;;;;;;16.93;13.20;;;;;;;2.99;100.00;98183.91;5077712;28;20208;-71
2022/12/03 03:01:29;;;;;;;17.47;13.13;;;;;;;2.96;100.00;98181.66;5096046;28;20583;-71
2022/12/03 03:03:56;;;;;;;18.47;13.97;;;;;;;3.05;100.00;98191.16;5096030;28;20226;-71
2022/12/03 03:06:23;;;;;;;18.80;14.03;;;;;;;3.03;100.00;98192.31;5095926;28;20290;-71
2022/12/03 03:08:50;;;;;;;18.03;13.90;;;;;;;3.01;100.00;98178.50;5095824;28;20200;-71
2022/12/03 03:11:16;;;;;;;17.03;13.40;;;;;;;3.10;100.00;98180.13;5095186;28;20585;-70
2022/12/03 03:13:43;;;;;;;18.73;14.00;;;;;;;3.08;100.00;98190.00;5095667;28;20211;-71
2022/12/03 03:16:10;;;;;;;18.13;13.30;;;;;;;2.99;100.00;98191.00;5095401;28;20220;-71
2022/12/03 03:18:37;;;;;;;17.03;13.60;;;;;;;3.11;100.00;98179.16;5095740;28;20200;-71
2022/12/03 03:21:04;;;;;;;17.53;13.77;;;;;;;3.03;100.00;98179.19;5095607;28;20228;-71
2022/12/03 03:23:30;;;;;;;17.47;13.53;;;;;;;3.13;100.00;98185.88;5095623;28;20204;-71
2022/12/03 03:26:01;;;;;;;17.17;13.57;;;;;;;3.08;100.00;98188.16;5095588;28;20204;-71
2022/12/03 03:28:29;;;;;;;17.83;13.70;;;;;;;3.04;100.00;98184.25;5078524;28;20188;-71
2022/12/03 03:30:57;;;;;;;18.57;14.03;;;;;;;3.01;100.00;98178.50;5095434;28;20220;-71
2022/12/03 03:33:24;;;;;;;19.90;14.47;;;;;;;3.06;100.00;98179.66;5077250;28;20204;-70
2022/12/03 03:35:51;;;;;;;20.27;14.97;;;;;;;3.04;100.00;98179.00;5077210;28;20223;-71
2022/12/03 03:38:20;;;;;;;17.17;13.63;;;;;;;3.08;100.00;98177.66;5095610;28;20204;-71
2022/12/03 03:40:49;;;;;;;19.27;13.20;;;;;;;3.17;100.00;98175.84;5095188;28;20223;-71
2022/12/03 03:43:15;;;;;;;18.00;13.40;;;;;;;3.23;100.00;98178.63;5095171;28;20206;-71
2022/12/03 03:45:43;;;;;;;19.33;14.10;;;;;;;3.15;100.00;98170.75;5095476;28;20200;-71
2022/12/03 03:48:10;;;;;;;17.50;13.80;;;;;;;3.20;100.00;98186.03;5095167;28;20204;-71
2022/12/03 03:50:37;;;;;;;21.10;14.90;;;;;;;3.03;100.00;98177.34;5094934;28;20234;-71
2022/12/03 03:53:04;;;;;;;22.20;15.33;;;;;;;3.02;100.00;98177.53;5095037;28;20628;-71
2022/12/03 03:55:31;;;;;;;21.13;15.43;;;;;;;3.09;100.00;98175.88;5094887;28;20338;-71
2022/12/03 03:57:58;;;;;;;20.40;14.93;;;;;;;3.11;100.00;98179.97;5093921;28;20659;-71
2022/12/03 04:00:25;;;;;;;21.00;15.27;;;;;;;3.19;100.00;98173.84;5094749;28;20204;-71
2022/12/03 04:02:52;;;;;;;23.63;15.03;;;;;;;3.13;100.00;98171.91;5094747;28;20208;-71
2022/12/03 04:05:21;;;;;;;20.97;14.60;;;;;;;3.15;100.00;98169.94;5094567;28;20206;-71
2022/12/03 04:07:48;;;;;;;18.13;14.53;;;;;;;3.12;100.00;98167.66;5094555;28;20200;-71
2022/12/03 04:12:58;;;;;;;19.80;14.67;;;;;;;3.13;100.00;98164.03;5063414;28;20211;-71
2022/12/03 04:15:26;;;;;;;18.77;14.63;;;;;;;3.13;100.00;98159.63;5094389;28;20233;-71
2022/12/03 04:20:33;;;;;;;18.77;14.20;;;;;;;3.20;100.00;98157.13;5093172;28;20272;-71
2022/12/03 04:22:58;;;;;;;21.13;15.33;;;;;;;3.19;100.00;98171.22;5094655;28;20204;-71
2022/12/03 04:30:53;;;;;;;21.10;15.20;;;;;;;3.08;100.00;98158.47;5094342;28;20229;-70
2022/12/03 04:36:03;;;;;;;18.43;14.53;;;;;;;3.07;100.00;98162.91;5093816;28;20309;-71
2022/12/03 04:38:30;;;;;;;18.90;14.30;;;;;;;3.08;100.00;98164.53;5094087;28;20204;-71
2022/12/03 04:41:02;;;;;;;21.37;15.47;;;;;;;3.06;100.00;98160.44;5093732;28;20224;-70
2022/12/03 04:44:31;;;;;;;19.70;14.87;;;;;;;3.10;100.00;98153.84;5093893;28;20283;-71
2022/12/03 04:46:24;;;;;;;19.33;14.40;;;;;;;3.12;100.00;98159.78;5093541;28;20200;-71
2022/12/03 04:48:51;;;;;;;18.73;14.20;;;;;;;3.15;100.00;98154.16;5093915;28;20203;-71
2022/12/03 04:51:17;;;;;;;21.23;15.63;;;;;;;3.13;100.00;98159.63;5094123;28;20242;-71
2022/12/03 04:53:43;;;;;;;19.13;14.13;;;;;;;3.17;100.00;98157.47;5093922;28;20213;-71
2022/12/03 04:56:10;;;;;;;24.63;16.93;;;;;;;3.13;100.00;98162.25;5094081;28;20227;-71
2022/12/03 04:58:36;;;;;;;19.47;14.37;;;;;;;3.05;100.00;98153.53;5093454;28;20204;-71
2022/12/03 05:01:02;;;;;;;22.03;15.67;;;;;;;3.05;100.00;98154.38;5093398;28;20235;-71
2022/12/03 05:03:29;;;;;;;21.40;15.33;;;;;;;3.04;100.00;98154.53;5093828;28;20207;-71
2022/12/03 05:05:55;;;;;;;22.97;15.57;;;;;;;3.03;100.00;98155.53;5093698;28;20203;-71
2022/12/03 05:08:21;;;;;;;22.10;16.27;;;;;;;3.07;100.00;98152.38;5093325;28;20208;-71
2022/12/03 05:10:48;;;;;;;21.23;15.50;;;;;;;3.15;100.00;98147.13;5093417;28;20583;-71
2022/12/03 05:13:14;;;;;;;19.97;15.50;;;;;;;3.04;100.00;98146.66;5093476;28;20210;-71
2022/12/03 05:15:40;;;;;;;23.63;16.17;;;;;;;3.14;100.00;98148.09;5093364;28;20219;-71
2022/12/03 05:18:07;;;;;;;24.20;16.23;;;;;;;3.16;100.00;98153.19;5093433;28;20208;-71
2022/12/03 05:20:42;;;;;;;22.70;16.07;;;;;;;3.15;100.00;98152.38;5093062;28;20228;-71
2022/12/03 05:23:13;;;;;;;24.17;15.97;;;;;;;3.15;100.00;98157.63;5093583;28;20294;-71
2022/12/03 05:25:41;;;;;;;23.20;15.77;;;;;;;3.09;100.00;98149.59;5093518;28;20200;-71
2022/12/03 05:28:07;;;;;;;21.97;15.40;;;;;;;3.06;100.00;98145.50;5093583;28;20210;-71
2022/12/03 05:30:34;;;;;;;22.40;16.03;;;;;;;3.04;100.00;98139.63;5093386;28;20235;-71
2022/12/03 05:33:01;;;;;;;20.27;15.73;;;;;;;3.10;100.00;98145.97;5093093;28;20257;-71
2022/12/03 05:35:28;;;;;;;23.27;16.70;;;;;;;3.05;100.00;98143.03;5093210;28;20223;-71
2022/12/03 05:37:54;;;;;;;23.10;16.23;;;;;;;3.06;100.00;98140.25;5093243;28;20203;-71
2022/12/03 05:40:21;;;;;;;22.63;15.67;;;;;;;3.21;100.00;98132.50;5092635;28;20208;-70
2022/12/03 05:42:52;;;;;;;23.50;16.60;;;;;;;3.12;100.00;98123.81;5093211;28;20210;-71
2022/12/03 05:45:33;;;;;;;25.67;17.50;;;;;;;3.07;100.00;98134.00;5093073;28;20260;-71
2022/12/03 05:48:01;;;;;;;23.73;16.80;;;;;;;3.14;100.00;98123.63;5093369;28;20271;-71
2022/12/03 05:50:29;;;;;;;25.63;17.40;;;;;;;3.05;100.00;98137.78;5093089;28;20208;-72
2022/12/03 05:52:57;;;;;;;22.40;16.77;;;;;;;3.04;100.00;98142.25;5093270;28;20195;-71
2022/12/03 05:55:24;;;;;;;25.10;16.80;;;;;;;3.01;100.00;98136.50;5093082;28;20228;-71
2022/12/03 05:57:50;;;;;;;24.40;15.97;;;;;;;3.14;100.00;98128.88;5093227;28;20204;-71
2022/12/03 06:00:28;;;;;;;22.40;16.13;;;;;;;3.11;100.00;98134.50;5093125;28;20204;-70
2022/12/03 06:02:55;;;;;;;20.50;15.90;;;;;;;3.04;100.00;98131.75;5093161;28;20192;-71
2022/12/03 06:05:22;;;;;;;22.83;17.33;;;;;;;3.07;100.00;98141.09;5092853;28;20663;-70
2022/12/03 06:07:50;;;;;;;23.27;17.23;;;;;;;3.04;100.00;98137.00;5092918;28;20200;-70
2022/12/03 06:10:19;;;;;;;23.67;16.63;;;;;;;3.03;100.00;98137.97;5092917;28;20574;-71
2022/12/03 06:12:45;;;;;;;23.50;16.70;;;;;;;3.00;100.00;98130.44;5093021;28;20204;-71
2022/12/03 06:15:14;;;;;;;23.80;16.20;;;;;;;3.08;100.00;98135.63;5092977;28;20211;-71
2022/12/03 06:17:41;;;;;;;21.77;16.53;;;;;;;3.04;100.00;98141.41;5092972;28;20257;-71
2022/12/03 06:20:10;;;;;;;22.90;16.90;;;;;;;2.99;100.00;98138.47;5092887;28;20210;-71
2022/12/03 06:22:36;;;;;;;22.70;16.93;;;;;;;3.06;100.00;98134.16;5095620;28;20585;-70
2022/12/03 06:25:03;;;;;;;22.80;16.40;;;;;;;3.16;100.00;98151.38;5096654;28;20204;-71
2022/12/03 06:27:29;;;;;;;22.30;15.67;;;;;;;3.13;100.00;98150.91;5096690;28;20200;-71
2022/12/03 06:29:56;;;;;;;25.07;17.43;;;;;;;3.11;100.00;98148.44;5096597;28;20728;-71
2022/12/03 06:32:22;;;;;;;23.30;16.03;;;;;;;3.08;100.00;98143.50;5096459;28;20224;-71
2022/12/03 06:34:48;;;;;;;22.67;16.40;;;;;;;2.99;100.00;98149.78;5096571;28;20204;-71
2022/12/03 06:37:15;;;;;;;24.73;17.43;;;;;;;3.02;100.00;98138.94;5096299;28;20235;-71
2022/12/03 06:39:41;;;;;;;22.93;16.77;;;;;;;3.04;100.00;98146.66;5096233;28;20218;-71
2022/12/03 06:42:08;;;;;;;22.00;16.17;;;;;;;3.04;100.00;98151.91;5096141;28;20224;-70
2022/12/03 06:44:34;;;;;;;22.03;16.40;;;;;;;3.16;100.00;98155.81;5095939;28;20208;-71
2022/12/03 06:47:00;;;;;;;22.60;15.90;;;;;;;3.20;100.00;98157.94;5096162;28;20195;-71
2022/12/03 06:49:27;;;;;;;23.27;16.40;;;;;;;3.05;100.00;98162.25;5096862;28;20214;-71
2022/12/03 06:51:53;;;;;;;24.27;16.80;;;;;;;3.09;100.00;98167.97;5095599;28;20228;-71
2022/12/03 06:54:19;;;;;;;25.33;16.63;;;;;;;3.15;100.00;98175.19;5096677;28;20210;-71
2022/12/03 06:56:46;;;;;;;24.80;17.47;;;;;;;3.11;100.00;98168.66;5096008;28;20224;-71
2022/12/03 06:59:13;;;;;;;23.00;16.87;;;;;;;3.21;100.00;98167.44;5095956;28;20200;-71
2022/12/03 07:01:39;;;;;;;25.47;17.27;;;;;;;3.15;100.00;98167.28;5096102;28;20226;-71
2022/12/03 07:04:06;;;;;;;26.03;17.83;;;;;;;3.25;100.00;98165.31;5095948;28;20208;-71
2022/12/03 07:06:32;;;;;;;24.47;16.93;;;;;;;3.20;100.00;98170.25;5095821;28;20200;-71
2022/12/03 07:08:58;;;;;;;27.23;17.87;;;;;;;3.14;100.00;98160.41;5095843;28;20199;-71
2022/12/03 07:11:30;;;;;;;24.53;17.37;;;;;;;3.27;100.00;98158.91;5095286;28;20230;-71
2022/12/03 07:13:58;;;;;;;24.93;18.17;;;;;;;3.19;100.00;98148.41;5095771;28;20184;-71
2022/12/03 07:16:24;;;;;;;26.37;17.17;;;;;;;3.16;100.00;98147.94;5095455;28;20227;-71
2022/12/03 07:18:51;;;;;;;25.80;16.60;;;;;;;3.18;100.00;98141.53;5095253;28;20565;-71
2022/12/03 07:21:17;;;;;;;27.30;18.30;;;;;;;3.27;100.00;98147.56;5095192;28;20230;-71
2022/12/03 07:23:45;;;;;;;25.20;18.03;;;;;;;3.22;100.00;98147.25;5095232;28;20210;-70
2022/12/03 07:26:11;;;;;;;26.80;17.43;;;;;;;3.23;100.00;98152.34;5095140;28;20196;-71
2022/12/03 07:28:37;;;;;;;25.33;16.97;;;;;;;3.24;100.00;98155.78;5095420;28;20210;-71
2022/12/03 07:31:04;;;;;;;27.57;18.23;;;;;;;3.24;100.00;98155.78;5095031;28;20229;-71
2022/12/03 07:33:30;;;;;;;26.03;17.93;;;;;;;3.26;100.00;98151.19;5095301;28;20231;-71
2022/12/03 07:35:57;;;;;;;27.40;18.67;;;;;;;3.26;100.00;98161.69;5095268;28;20223;-71
2022/12/03 07:38:24;;;;;;;24.40;18.37;;;;;;;3.36;100.00;98162.28;5094744;28;20693;-71
2022/12/03 07:40:51;;;;;;;26.50;18.47;;;;;;;3.30;100.00;98141.97;5095212;28;20228;-71
2022/12/03 07:43:17;;;;;;;27.47;17.67;;;;;;;3.26;100.00;98145.94;5095078;28;20200;-71
2022/12/03 07:45:43;;;;;;;26.13;18.27;;;;;;;3.27;100.00;98145.75;5094616;28;20210;-71
2022/12/03 07:48:10;;;;;;;26.40;18.47;;;;;;;3.37;100.00;98156.88;5095152;28;20304;-71
2022/12/03 07:50:36;;;;;;;26.97;17.27;;;;;;;3.35;100.00;98145.69;5094856;28;20224;-71
2022/12/03 07:53:03;;;;;;;28.90;17.97;;;;;;;3.40;100.00;98147.84;5094691;28;20657;-71
2022/12/03 07:55:29;;;;;;;24.23;17.37;;;;;;;3.50;100.00;98145.81;5094856;28;20200;-71
2022/12/03 07:57:55;;;;;;;25.80;18.37;;;;;;;3.41;100.00;98138.94;5094773;28;20200;-71
2022/12/03 08:00:22;;;;;;;25.70;17.77;;;;;;;3.40;100.00;98140.78;5094657;28;20208;-71
2022/12/03 08:02:49;;;;;;;31.67;19.00;;;;;;;3.42;100.00;98141.41;5095041;28;20651;-71
2022/12/03 08:05:15;;;;;;;27.17;18.27;;;;;;;3.45;100.00;98140.25;5094598;28;20204;-71
2022/12/03 08:07:41;;;;;;;31.03;19.57;;;;;;;3.40;100.00;98139.94;5094497;28;20200;-71
2022/12/03 08:10:08;;;;;;;31.10;19.13;;;;;;;3.40;100.00;98140.78;5094189;28;20212;-71
2022/12/03 08:12:41;;;;;;;30.77;19.43;;;;;;;3.38;100.00;98147.16;5094471;28;20231;-71
2022/12/03 08:15:14;;;;;;;29.37;19.27;;;;;;;3.47;100.00;98139.09;5094273;28;20628;-71
2022/12/03 08:17:41;;;;;;;29.87;19.00;;;;;;;3.46;100.00;98147.97;5094079;28;20802;-71
2022/12/03 08:20:17;;;;;;;31.03;19.60;;;;;;;3.44;100.00;98157.00;5094501;28;20200;-71
2022/12/03 08:22:45;;;;;;;32.80;21.13;;;;;;;3.39;100.00;98149.63;5093987;28;20268;-71
2022/12/03 08:25:23;;;;;;;30.97;20.20;;;;;;;3.47;100.00;98146.13;5094222;28;20204;-71
2022/12/03 08:27:51;;;;;;;31.73;20.00;;;;;;;3.47;100.00;98151.38;5094277;28;20200;-71
2022/12/03 08:30:18;;;;;;;28.93;19.70;;;;;;;3.50;100.00;98144.00;5094012;28;20210;-71
2022/12/03 08:33:00;;;;;;;29.10;17.53;;;;;;;3.57;100.00;98144.94;5049172;28;20651;-71
2022/12/03 08:35:30;;;;;;;26.87;18.57;;;;;;;3.51;100.00;98150.06;5094051;28;20214;-71
2022/12/03 08:38:02;;;;;;;27.97;18.97;;;;;;;3.56;100.00;98147.72;5093957;28;20195;-70
2022/12/03 08:40:37;;;;;;;28.30;17.97;;;;;;;3.61;100.00;98150.69;5093791;28;20188;-71
2022/12/03 08:43:22;;;;;;;25.83;17.83;;;;;;;3.63;100.00;98153.94;5093415;28;20210;-70
2022/12/03 08:45:50;;;;;;;24.33;17.00;;;;;;;3.56;100.00;98150.34;5077009;28;20188;-71
2022/12/03 08:48:36;;;;;;;22.67;16.20;;;;;;;3.53;100.00;98150.72;5093557;28;20208;-70
2022/12/03 08:51:19;;;;;;;25.13;17.80;;;;;;;3.57;100.00;98144.94;5093329;28;20775;-70
2022/12/03 08:53:48;;;;;;;22.70;16.67;;;;;;;3.60;100.00;98143.78;5093447;28;20556;-71
2022/12/03 08:56:25;;;;;;;22.57;17.13;;;;;;;3.66;100.00;98149.16;5093594;28;20608;-71
2022/12/03 08:58:54;;;;;;;24.17;16.47;;;;;;;3.59;100.00;98142.97;5093691;28;20191;-70
2022/12/03 09:01:37;;;;;;;24.00;16.50;;;;;;;3.61;100.00;98140.16;5093530;28;20246;-71
2022/12/03 09:04:36;;;;;;;24.20;16.43;;;;;;;3.61;100.00;98138.34;5093957;28;20192;-71
2022/12/03 09:07:02;;;;;;;28.63;16.97;;;;;;;3.60;100.00;98141.97;5093262;28;20646;-70
2022/12/03 09:09:29;;;;;;;25.57;16.73;;;;;;;3.56;100.00;98150.34;5093518;28;20200;-71
2022/12/03 09:11:55;;;;;;;24.97;16.07;;;;;;;3.59;100.00;98152.66;5093491;28;20230;-71
2022/12/03 09:14:22;;;;;;;23.23;15.77;;;;;;;3.58;100.00;98156.28;5093419;28;20203;-70
2022/12/03 09:16:54;;;;;;;20.40;15.07;;;;;;;3.55;100.00;98152.19;5092952;28;20305;-70
2022/12/03 09:19:22;;;;;;;22.73;16.10;;;;;;;3.57;100.00;98159.91;5093119;28;20276;-70
2022/12/03 09:21:48;;;;;;;25.10;16.23;;;;;;;3.45;100.00;98161.28;5093213;28;20223;-70
2022/12/03 09:24:15;;;;;;;25.07;16.77;;;;;;;3.46;100.00;98161.09;5093265;28;20214;-70
2022/12/03 09:26:41;;;;;;;25.60;16.33;;;;;;;3.52;100.00;98159.59;5093372;28;20574;-70
2022/12/03 09:29:08;;;;;;;24.83;16.70;;;;;;;3.40;100.00;98164.44;5092852;28;20663;-70
2022/12/03 09:31:34;;;;;;;27.90;17.10;;;;;;;3.47;100.00;98154.03;5093213;28;20230;-70
2022/12/03 09:34:05;;;;;;;24.73;16.30;;;;;;;3.51;100.00;98156.16;5093187;28;20204;-71
2022/12/03 09:36:31;;;;;;;22.33;16.63;;;;;;;3.53;100.00;98148.09;5093098;28;20253;-70
2022/12/03 09:38:58;;;;;;;23.90;16.20;;;;;;;3.53;100.00;98153.34;5093212;28;20393;-70
2022/12/03 09:41:25;;;;;;;24.03;15.73;;;;;;;3.54;100.00;98144.47;5092799;28;20224;-70
2022/12/03 09:43:53;;;;;;;22.87;15.60;;;;;;;3.56;100.00;98145.09;5093110;28;20200;-70
2022/12/03 09:46:21;;;;;;;24.63;16.47;;;;;;;3.63;100.00;98133.75;5092853;28;20214;-70
2022/12/03 09:48:48;;;;;;;24.20;15.80;;;;;;;3.71;100.00;98122.34;5092985;28;20206;-70
2022/12/03 09:51:14;;;;;;;25.27;15.80;;;;;;;3.91;100.00;98128.78;5092598;28;20338;-70
2022/12/03 09:53:41;;;;;;;21.70;15.40;;;;;;;4.02;100.00;98128.38;5093218;28;20208;-70
2022/12/03 09:56:18;;;;;;;19.57;14.13;;;;;;;3.89;100.00;98128.94;5093417;28;22164;-70
2022/12/03 09:58:45;;;;;;;19.70;14.03;;;;;;;3.73;100.00;98134.34;5096463;28;20662;-70
2022/12/03 10:01:14;;;;;;;19.67;14.23;;;;;;;3.83;100.00;98126.19;5096600;28;20729;-71
2022/12/03 10:03:46;;;;;;;20.80;14.67;;;;;;;3.83;100.00;98128.84;5096980;28;20206;-70
2022/12/03 10:06:21;;;;;;;19.03;13.77;;;;;;;4.13;100.00;98136.69;5096830;28;20572;-70
2022/12/03 10:08:50;;;;;;;19.37;14.03;;;;;;;3.82;100.00;98129.84;5096897;28;20256;-70
2022/12/03 10:11:19;;;;;;;16.13;12.60;;;;;;;3.79;100.00;98149.41;5096707;28;20227;-70
2022/12/03 10:13:46;;;;;;;18.57;13.07;;;;;;;3.83;100.00;98149.88;5096569;28;20204;-70
2022/12/03 10:16:15;;;;;;;19.30;12.63;;;;;;;3.71;100.00;98156.53;5078543;28;20204;-70
2022/12/03 10:18:48;;;;;;;17.97;13.37;;;;;;;3.60;100.00;98143.78;5096586;28;20214;-70
2022/12/03 10:21:36;;;;;;;18.90;13.67;;;;;;;3.71;100.00;98140.75;5096709;28;20225;-70
2022/12/03 10:24:25;;;;;;;19.73;14.40;;;;;;;3.63;100.00;98132.91;5096538;28;20188;-70
2022/12/03 10:26:54;;;;;;;18.90;14.17;;;;;;;3.61;100.00;98125.19;5096043;28;20569;-70
2022/12/03 10:29:27;;;;;;;18.53;14.67;;;;;;;3.68;100.00;98122.69;5096254;28;20208;-70
2022/12/03 10:31:56;;;;;;;18.33;13.57;;;;;;;3.58;100.00;98130.81;5096219;28;20226;-70
2022/12/03 10:34:34;;;;;;;16.83;13.40;;;;;;;3.56;100.00;98126.69;5096310;28;20203;-70
2022/12/03 10:37:13;;;;;;;17.67;14.17;;;;;;;3.49;100.00;98131.88;5095871;28;20598;-70
2022/12/03 10:39:57;;;;;;;19.33;15.00;;;;;;;3.44;100.00;98125.47;5096321;28;20184;-70
2022/12/03 10:42:35;;;;;;;19.93;14.63;;;;;;;3.38;100.00;98119.09;5095847;28;20231;-70
2022/12/03 10:45:21;;;;;;;18.37;14.33;;;;;;;3.36;100.00;98123.72;5096450;28;20194;-70
2022/12/03 10:48:11;;;;;;;19.83;14.87;;;;;;;3.26;100.00;98119.66;5096174;28;20190;-70
2022/12/03 10:50:45;;;;;;;20.13;14.80;;;;;;;3.35;100.00;98119.44;5095790;28;20588;-70
2022/12/03 10:53:12;;;;;;;19.53;14.77;;;;;;;3.26;100.00;98112.56;5095883;28;20203;-70
2022/12/03 10:55:42;;;;;;;19.37;14.83;;;;;;;3.30;100.00;98107.81;5095982;28;20210;-70
2022/12/03 10:58:28;;;;;;;19.23;14.60;;;;;;;3.31;100.00;98101.56;5096304;28;20234;-70
2022/12/03 11:00:57;;;;;;;22.03;14.87;;;;;;;3.35;100.00;98103.66;5095803;28;20224;-70
2022/12/03 11:03:26;;;;;;;20.07;14.67;;;;;;;3.28;100.00;98094.84;5095408;28;20208;-70
2022/12/03 11:05:55;;;;;;;21.63;15.37;;;;;;;3.29;100.00;98098.31;5095538;28;20219;-71
2022/12/03 11:08:34;;;;;;;20.90;14.83;;;;;;;3.23;100.00;98086.66;5095048;28;20200;-70
2022/12/03 11:11:04;;;;;;;21.07;14.63;;;;;;;3.22;100.00;98082.41;5095644;28;20234;-71
2022/12/03 11:13:33;;;;;;;19.83;14.63;;;;;;;3.14;100.00;98084.25;5077979;28;20651;-70
2022/12/03 11:16:02;;;;;;;20.63;15.27;;;;;;;3.17;100.00;98086.53;5095509;28;20203;-70
2022/12/03 11:18:38;;;;;;;21.67;16.33;;;;;;;3.18;100.00;98078.50;5095026;28;20238;-70
2022/12/03 11:21:14;;;;;;;19.33;14.67;;;;;;;3.22;100.00;98079.78;5094910;28;20219;-70
2022/12/03 11:23:46;;;;;;;19.57;13.67;;;;;;;3.28;100.00;98076.47;5095372;28;20207;-70
2022/12/03 11:26:38;;;;;;;21.67;15.33;;;;;;;3.27;100.00;98074.00;5095332;28;20200;-70
2022/12/03 11:29:13;;;;;;;21.80;15.20;;;;;;;3.38;100.00;98073.59;5094777;28;20210;-70
2022/12/03 11:31:45;;;;;;;19.70;14.30;;;;;;;3.35;100.00;98068.72;5094930;28;20262;-70
2022/12/03 11:34:18;;;;;;;20.67;14.50;;;;;;;3.35;100.00;98071.34;5095567;28;20200;-70
2022/12/03 11:37:09;;;;;;;17.17;12.90;;;;;;;3.31;100.00;98072.66;5094204;28;20713;-70
2022/12/03 11:40:00;;;;;;;19.43;14.13;;;;;;;3.34;100.00;98075.75;5094569;28;20210;-70
2022/12/03 11:42:29;;;;;;;18.97;13.20;;;;;;;3.29;100.00;98078.09;5046813;28;20259;-70
2022/12/03 11:45:05;;;;;;;18.27;12.73;;;;;;;3.18;100.00;98061.91;5094643;28;20645;-70